Time;durP1;ratioP1;P1;durP2;ratioP2;P2;SDS_P1;SDS_P2;PMS_P1;PMS_P2;Temp;Humidity;BMP_temperature;BMP_pressure;BME280_temperature;BME280_humidity;BME280_pressure;Samples;Min_cycle;Max_cycle;Signal;HPM_P1;HPM_P2
2022/06/30 00:00:43;;;;;;;;;;;;;;;28.16;47.57;98463.75;2081956;28;20543;-47
2022/06/30 00:01:44;;;;;;;;;;;;;;;28.17;47.68;98461.88;2083288;28;19928;-49
2022/06/30 00:02:45;;;;;;;;;;;;;;;28.15;47.59;98464.84;2082972;28;19939;-47
2022/06/30 00:03:46;;;;;;;;;;;;;;;28.17;47.29;98465.41;2085692;28;19924;-46
2022/06/30 00:04:47;;;;;;;;;;;;;;;28.16;47.49;98465.66;2080975;28;19939;-46
2022/06/30 00:05:48;;;;;;;;;;;;;;;28.17;47.43;98461.88;2088142;28;19979;-48
2022/06/30 00:06:50;;;;;;;;;;;;;;;28.17;47.68;98465.41;2087428;28;20031;-45
2022/06/30 00:07:51;;;;;;;;;;;;;;;28.18;47.71;98463.50;2087229;28;19932;-47
2022/06/30 00:08:53;;;;;;;;;;;;;;;28.17;47.30;98465.41;2082803;28;19971;-46
2022/06/30 00:09:53;;;;;;;;;;;;;;;28.17;47.57;98465.41;2080305;28;19928;-49
2022/06/30 00:10:55;;;;;;;;;;;;;;;28.17;47.48;98468.13;2087996;28;20587;-47
2022/06/30 00:11:55;;;;;;;;;;;;;;;28.17;47.57;98470.88;2086025;28;19928;-50
2022/06/30 00:12:57;;;;;;;;;;;;;;;28.18;47.35;98467.03;2086468;28;19928;-50
2022/06/30 00:13:57;;;;;;;;;;;;;;;28.17;47.70;98465.41;2084207;28;19928;-46
2022/06/30 00:14:59;;;;;;;;;;;;;;;28.17;47.53;98465.41;2085907;28;19918;-49
2022/06/30 00:16:01;;;;;;;;;;;;;;;28.18;47.61;98467.03;2081912;28;19939;-50
2022/06/30 00:17:03;;;;;;;;;;;;;;;28.17;47.42;98459.97;2083010;28;20025;-51
2022/06/30 00:18:04;;;;;;;;;;;;;;;28.17;47.54;98451.78;2086865;28;19940;-52
2022/06/30 00:19:05;;;;;;;;;;;;;;;28.17;47.49;98461.88;2087667;28;19960;-51
2022/06/30 00:20:06;;;;;;;;;;;;;;;28.17;47.75;98448.25;2085508;28;20449;-48
2022/06/30 00:21:09;;;;;;;;;;;;;;;28.17;47.42;98457.22;2085004;28;19935;-51
2022/06/30 00:22:10;;;;;;;;;;;;;;;28.15;47.31;98453.94;2081537;28;20722;-49
2022/06/30 00:23:12;;;;;;;;;;;;;;;28.17;47.65;98459.16;2085741;28;19924;-52
2022/06/30 00:24:13;;;;;;;;;;;;;;;28.16;47.28;98457.50;2082587;28;19929;-51
2022/06/30 00:25:14;;;;;;;;;;;;;;;28.13;47.45;98458.84;2086196;28;19933;-52
2022/06/30 00:26:15;;;;;;;;;;;;;;;28.14;47.45;98460.50;2083068;28;20493;-51
2022/06/30 00:27:16;;;;;;;;;;;;;;;28.16;47.71;98471.13;2084248;28;19964;-48
2022/06/30 00:28:19;;;;;;;;;;;;;;;28.15;47.46;98462.13;2084557;28;19933;-47
2022/06/30 00:29:21;;;;;;;;;;;;;;;28.15;47.31;98467.59;2082718;28;19971;-48
2022/06/30 00:30:21;;;;;;;;;;;;;;;28.16;47.48;98469.22;2081626;28;19954;-48
2022/06/30 00:31:24;;;;;;;;;;;;;;;28.16;47.42;98465.66;2085558;28;21540;-50
2022/06/30 00:32:26;;;;;;;;;;;;;;;28.15;47.62;98466.78;2086112;28;19928;-49
2022/06/30 00:33:28;;;;;;;;;;;;;;;28.14;47.57;98468.69;2074110;28;19968;-52
2022/06/30 00:34:29;;;;;;;;;;;;;;;28.14;47.64;98474.13;2082316;28;20452;-51
2022/06/30 00:35:30;;;;;;;;;;;;;;;28.14;47.65;98471.41;2088354;28;20046;-49
2022/06/30 00:36:31;;;;;;;;;;;;;;;28.14;47.59;98465.13;2085505;28;19933;-53
2022/06/30 00:37:32;;;;;;;;;;;;;;;28.14;47.66;98459.66;2085533;28;19934;-50
2022/06/30 00:38:33;;;;;;;;;;;;;;;28.13;47.60;98466.22;2084885;28;19925;-52
2022/06/30 00:39:34;;;;;;;;;;;;;;;28.12;47.82;98457.22;2080255;28;20553;-50
2022/06/30 00:40:35;;;;;;;;;;;;;;;28.13;47.51;98460.75;2083974;28;20065;-52
2022/06/30 00:41:39;;;;;;;;;;;;;;;28.12;47.58;98465.41;2083435;28;19936;-52
2022/06/30 00:42:40;;;;;;;;;;;;;;;28.12;47.45;98459.13;2083330;28;19936;-50
2022/06/30 00:43:42;;;;;;;;;;;;;;;28.12;47.53;98456.41;2084693;28;19933;-49
2022/06/30 00:44:43;;;;;;;;;;;;;;;28.12;47.63;98462.69;2085163;28;19932;-50
2022/06/30 00:45:45;;;;;;;;;;;;;;;28.13;47.58;98468.94;2084630;28;20329;-52
2022/06/30 00:46:47;;;;;;;;;;;;;;;28.13;47.44;98467.03;2084278;28;19928;-51
2022/06/30 00:47:49;;;;;;;;;;;;;;;28.13;47.67;98464.31;2087336;28;21555;-52
2022/06/30 00:48:50;;;;;;;;;;;;;;;28.10;47.82;98464.84;2085333;28;20017;-49
2022/06/30 00:49:51;;;;;;;;;;;;;;;28.12;47.53;98465.41;2086606;28;19928;-50
2022/06/30 00:50:52;;;;;;;;;;;;;;;28.11;47.73;98466.50;2084073;28;19928;-49
2022/06/30 00:51:54;;;;;;;;;;;;;;;28.10;47.75;98462.13;2084969;28;19967;-51
2022/06/30 00:52:56;;;;;;;;;;;;;;;28.11;47.82;98463.78;2083159;28;19940;-50
2022/06/30 00:54:00;;;;;;;;;;;;;;;28.11;47.65;98463.78;2088893;28;19929;-51
2022/06/30 00:55:03;;;;;;;;;;;;;;;28.11;47.77;98462.94;2088744;28;20643;-51
2022/06/30 00:56:04;;;;;;;;;;;;;;;28.10;47.44;98469.47;2091194;28;20444;-52
2022/06/30 00:57:08;;;;;;;;;;;;;;;28.11;47.34;98474.69;2091219;28;20015;-50
2022/06/30 00:58:09;;;;;;;;;;;;;;;28.09;47.60;98470.59;2088599;28;20718;-52
2022/06/30 00:59:13;;;;;;;;;;;;;;;28.10;47.69;98486.66;2085156;28;19943;-49
2022/06/30 01:00:14;;;;;;;;;;;;;;;28.10;47.60;98481.19;2074991;28;19943;-51
2022/06/30 01:01:17;;;;;;;;;;;;;;;28.08;47.49;98483.38;2083119;28;20012;-50
2022/06/30 01:02:19;;;;;;;;;;;;;;;28.08;47.47;98488.81;2089504;28;19940;-53
2022/06/30 01:03:21;;;;;;;;;;;;;;;28.09;47.53;98485.03;2087135;28;19937;-50
2022/06/30 01:04:22;;;;;;;;;;;;;;;28.09;47.90;98484.22;2081242;28;20387;-52
2022/06/30 01:05:25;;;;;;;;;;;;;;;28.07;47.87;98487.19;2084881;28;19924;-51
2022/06/30 01:06:26;;;;;;;;;;;;;;;28.08;47.72;98480.66;2082948;28;19932;-50
2022/06/30 01:07:28;;;;;;;;;;;;;;;28.09;47.77;98495.94;2087319;28;19929;-50
2022/06/30 01:08:29;;;;;;;;;;;;;;;28.08;47.42;98488.81;2082632;28;20035;-51
2022/06/30 01:13:39;;;;;;;;;;;;;;;28.08;47.50;98486.09;2064519;28;19929;-49
2022/06/30 01:14:39;;;;;;;;;;;;;;;28.08;47.76;98480.66;2073257;28;19956;-52
2022/06/30 01:15:41;;;;;;;;;;;;;;;28.07;47.74;98482.56;2090502;28;20035;-51
2022/06/30 01:16:42;;;;;;;;;;;;;;;28.07;47.48;98479.84;2090328;28;19924;-51
2022/06/30 01:17:45;;;;;;;;;;;;;;;28.07;47.77;98481.75;2088919;28;19990;-49
2022/06/30 01:18:46;;;;;;;;;;;;;;;28.06;47.88;98483.66;2089531;28;19928;-48
2022/06/30 01:19:54;;;;;;;;;;;;;;;28.06;47.78;98480.13;2091099;28;19929;-51
2022/06/30 01:20:54;;;;;;;;;;;;;;;28.05;47.77;98484.75;2088684;28;19932;-48
2022/06/30 01:22:00;;;;;;;;;;;;;;;28.05;47.90;98483.91;2088925;28;19935;-47
2022/06/30 01:23:02;;;;;;;;;;;;;;;28.07;47.80;98484.47;2090119;28;19925;-48
2022/06/30 01:24:04;;;;;;;;;;;;;;;28.07;47.67;98479.84;2089275;28;19936;-49
2022/06/30 01:25:05;;;;;;;;;;;;;;;28.06;47.51;98485.56;2088850;28;19932;-51
2022/06/30 01:26:07;;;;;;;;;;;;;;;28.07;47.54;98487.19;2090584;28;20019;-51
2022/06/30 01:27:07;;;;;;;;;;;;;;;28.06;47.64;98477.41;2090461;28;20369;-49
2022/06/30 01:28:09;;;;;;;;;;;;;;;28.05;47.84;98475.72;2088719;28;19935;-50
2022/06/30 01:29:09;;;;;;;;;;;;;;;28.06;47.77;98474.66;2085229;28;19932;-48
2022/06/30 01:30:12;;;;;;;;;;;;;;;28.07;47.74;98476.28;2088661;28;19932;-49
2022/06/30 01:31:12;;;;;;;;;;;;;;;28.05;47.33;98473.84;2086312;28;19939;-50
2022/06/30 01:32:14;;;;;;;;;;;;;;;28.05;47.75;98464.84;2089811;28;19939;-51
2022/06/30 01:33:14;;;;;;;;;;;;;;;28.06;47.42;98471.94;2088474;28;19936;-48
2022/06/30 01:34:16;;;;;;;;;;;;;;;28.05;47.80;98471.13;2089816;28;20019;-51
2022/06/30 01:35:17;;;;;;;;;;;;;;;28.06;47.59;98471.94;2086390;28;19928;-51
2022/06/30 01:36:18;;;;;;;;;;;;;;;28.06;47.85;98471.94;2085519;28;19928;-51
2022/06/30 01:37:20;;;;;;;;;;;;;;;28.05;47.37;98473.00;2084894;28;19936;-46
2022/06/30 01:38:22;;;;;;;;;;;;;;;28.07;47.46;98477.09;2085199;28;19985;-49
2022/06/30 01:39:22;;;;;;;;;;;;;;;28.05;47.85;98473.00;2082726;28;19929;-49
2022/06/30 01:40:25;;;;;;;;;;;;;;;28.04;47.84;98472.19;2086248;28;19935;-49
2022/06/30 01:41:26;;;;;;;;;;;;;;;28.06;47.77;98477.41;2082857;28;19954;-53
2022/06/30 01:42:28;;;;;;;;;;;;;;;28.06;47.66;98466.50;2084049;28;19964;-51
2022/06/30 01:43:28;;;;;;;;;;;;;;;28.06;47.56;98477.41;2088143;28;19925;-49
2022/06/30 01:44:30;;;;;;;;;;;;;;;28.05;47.90;98467.56;2084055;28;19932;-53
2022/06/30 01:45:31;;;;;;;;;;;;;;;28.06;47.58;98474.66;2084530;28;19928;-47
2022/06/30 01:46:32;;;;;;;;;;;;;;;28.05;47.71;98473.00;2082349;28;19971;-51
2022/06/30 01:47:35;;;;;;;;;;;;;;;28.05;47.47;98467.56;2087057;28;19928;-51
2022/06/30 01:48:37;;;;;;;;;;;;;;;28.03;47.67;98465.13;2084553;28;19928;-50
2022/06/30 01:49:37;;;;;;;;;;;;;;;28.05;47.61;98467.56;2090704;28;19978;-50
2022/06/30 01:50:39;;;;;;;;;;;;;;;28.05;47.43;98462.09;2086998;28;19939;-50
2022/06/30 01:51:40;;;;;;;;;;;;;;;28.04;47.56;98463.19;2087930;28;19928;-47
2022/06/30 01:52:43;;;;;;;;;;;;;;;28.04;47.62;98464.00;2082612;28;20441;-52
2022/06/30 01:53:44;;;;;;;;;;;;;;;28.03;47.61;98467.03;2075399;28;19983;-50
2022/06/30 01:54:45;;;;;;;;;;;;;;;28.03;47.68;98467.84;2082822;28;19955;-52
2022/06/30 01:55:47;;;;;;;;;;;;;;;28.04;47.79;98460.47;2086119;28;19928;-48
2022/06/30 01:56:47;;;;;;;;;;;;;;;28.04;47.56;98455.84;2082028;28;19939;-49
2022/06/30 01:57:49;;;;;;;;;;;;;;;28.04;47.35;98463.19;2080626;28;19925;-49
2022/06/30 01:58:51;;;;;;;;;;;;;;;28.05;47.73;98467.56;2085475;28;19928;-53
2022/06/30 01:59:53;;;;;;;;;;;;;;;28.03;47.38;98465.13;2084224;28;19928;-52
2022/06/30 02:00:53;;;;;;;;;;;;;;;28.04;47.72;98461.28;2083334;28;19940;-49
2022/06/30 02:01:55;;;;;;;;;;;;;;;28.03;47.66;98464.31;2087125;28;20912;-49
2022/06/30 02:02:56;;;;;;;;;;;;;;;28.02;47.83;98452.56;2084244;28;19929;-51
2022/06/30 02:04:46;;;;;;;;;;;;;;;28.03;47.67;98456.13;2082840;28;20900;-51
2022/06/30 02:05:19;;;;;;;;;;;;;;;28.02;47.74;98452.56;2085496;28;20014;-50
2022/06/30 02:06:20;;;;;;;;;;;;;;;28.03;47.45;98450.66;2080781;28;19936;-52
2022/06/30 02:07:23;;;;;;;;;;;;;;;28.03;47.60;98453.41;2085061;28;19940;-52
2022/06/30 02:08:26;;;;;;;;;;;;;;;28.03;47.59;98448.75;2082248;28;20414;-52
2022/06/30 02:09:26;;;;;;;;;;;;;;;28.05;47.72;98453.94;2082745;28;19935;-49
2022/06/30 02:10:28;;;;;;;;;;;;;;;28.02;47.72;98457.19;2084986;28;19939;-49
2022/06/30 02:11:28;;;;;;;;;;;;;;;28.03;47.48;98450.66;2086469;28;19928;-52
2022/06/30 02:12:47;;;;;;;;;;;;;;;28.03;47.82;98448.75;2082537;28;20027;-49
2022/06/30 02:13:49;;;;;;;;;;;;;;;28.02;47.66;98452.56;2087173;28;20574;-50
2022/06/30 02:14:49;;;;;;;;;;;;;;;28.02;47.56;98454.47;2089545;28;19979;-51
2022/06/30 02:15:51;;;;;;;;;;;;;;;28.01;47.61;98456.38;2088998;28;20512;-49
2022/06/30 02:16:52;;;;;;;;;;;;;;;28.01;47.65;98453.66;2089552;28;19935;-50
2022/06/30 02:17:54;;;;;;;;;;;;;;;28.01;47.67;98455.56;2086170;28;20007;-51
2022/06/30 02:18:55;;;;;;;;;;;;;;;28.01;47.74;98461.03;2088013;28;19940;-48
2022/06/30 02:19:56;;;;;;;;;;;;;;;28.01;47.79;98463.75;2090146;28;19938;-48
2022/06/30 02:20:58;;;;;;;;;;;;;;;28.01;47.72;98461.03;2090460;28;20486;-50
2022/06/30 02:21:59;;;;;;;;;;;;;;;28.02;47.78;98466.19;2090349;28;19929;-49
2022/06/30 02:23:01;;;;;;;;;;;;;;;28.02;47.50;98465.38;2090747;28;19929;-49
2022/06/30 02:24:04;;;;;;;;;;;;;;;28.00;47.82;98464.81;2084122;28;19933;-49
2022/06/30 02:25:06;;;;;;;;;;;;;;;27.99;47.89;98463.19;2087291;28;20512;-53
2022/06/30 02:26:07;;;;;;;;;;;;;;;28.00;47.63;98470.25;2089599;28;19959;-51
2022/06/30 02:27:09;;;;;;;;;;;;;;;28.01;47.39;98463.75;2089324;28;20706;-50
2022/06/30 02:28:11;;;;;;;;;;;;;;;28.00;47.57;98464.81;2089108;28;19933;-49
2022/06/30 02:29:11;;;;;;;;;;;;;;;28.00;47.40;98462.94;2084846;28;21470;-51
2022/06/30 02:30:13;;;;;;;;;;;;;;;27.99;47.73;98468.63;2084176;28;19932;-52
2022/06/30 02:31:14;;;;;;;;;;;;;;;27.99;47.70;98466.72;2088544;28;19928;-51
2022/06/30 02:32:15;;;;;;;;;;;;;;;27.97;47.78;98468.09;2087931;28;20548;-50
2022/06/30 02:33:17;;;;;;;;;;;;;;;27.98;47.85;98467.00;2082368;28;19948;-50
2022/06/30 02:34:18;;;;;;;;;;;;;;;27.99;47.51;98471.38;2082116;28;19928;-51
2022/06/30 02:35:19;;;;;;;;;;;;;;;27.99;47.80;98465.91;2083870;28;19924;-49
2022/06/30 02:36:20;;;;;;;;;;;;;;;27.98;47.75;98467.00;2088135;28;19929;-48
2022/06/30 02:37:21;;;;;;;;;;;;;;;27.98;47.84;98462.38;2089100;28;20019;-50
2022/06/30 02:38:23;;;;;;;;;;;;;;;27.98;47.85;98465.09;2086466;28;19925;-54
2022/06/30 02:39:25;;;;;;;;;;;;;;;27.97;47.78;98460.75;2083744;28;19928;-52
2022/06/30 02:40:27;;;;;;;;;;;;;;;27.98;47.68;98458.84;2081194;28;20004;-51
2022/06/30 02:41:27;;;;;;;;;;;;;;;27.99;47.46;98468.63;2081562;28;20023;-48
2022/06/30 02:42:29;;;;;;;;;;;;;;;27.96;47.90;98461.81;2080262;28;20019;-51
2022/06/30 02:43:29;;;;;;;;;;;;;;;27.95;47.77;98462.09;2083319;28;19932;-49
2022/06/30 02:44:31;;;;;;;;;;;;;;;27.97;47.75;98460.75;2085483;28;19967;-47
2022/06/30 02:45:32;;;;;;;;;;;;;;;27.98;47.74;98464.28;2088277;28;19932;-51
2022/06/30 02:46:33;;;;;;;;;;;;;;;27.98;47.39;98451.47;2089396;28;19940;-50
2022/06/30 02:47:36;;;;;;;;;;;;;;;27.98;47.79;98453.38;2083847;28;19933;-50
2022/06/30 02:48:36;;;;;;;;;;;;;;;27.97;47.61;98449.84;2083254;28;19929;-53
2022/06/30 02:49:39;;;;;;;;;;;;;;;27.96;47.43;98453.63;2085510;28;20019;-48
2022/06/30 02:50:39;;;;;;;;;;;;;;;27.94;47.83;98455.00;2082227;28;19939;-48
2022/06/30 02:51:41;;;;;;;;;;;;;;;27.94;47.44;98455.81;2079217;28;19928;-51
2022/06/30 02:52:43;;;;;;;;;;;;;;;27.95;47.50;98462.09;2078472;28;19996;-52
2022/06/30 02:53:43;;;;;;;;;;;;;;;27.96;47.77;98453.63;2083394;28;19929;-52
2022/06/30 02:54:46;;;;;;;;;;;;;;;27.96;47.73;98458.28;2079503;28;19933;-56
2022/06/30 02:55:48;;;;;;;;;;;;;;;27.95;47.68;98453.94;2086411;28;19928;-50
2022/06/30 02:56:49;;;;;;;;;;;;;;;27.94;47.49;98463.16;2079313;28;20030;-52
2022/06/30 02:57:50;;;;;;;;;;;;;;;27.93;47.95;98458.81;2086658;28;20027;-49
2022/06/30 02:58:51;;;;;;;;;;;;;;;27.93;47.71;98459.63;2083287;28;19958;-48
2022/06/30 02:59:52;;;;;;;;;;;;;;;27.91;47.90;98455.53;2081421;28;19933;-51
2022/06/30 03:00:54;;;;;;;;;;;;;;;27.92;47.66;98458.00;2081467;28;19978;-51
2022/06/30 03:01:54;;;;;;;;;;;;;;;27.91;47.88;98455.53;2083800;28;19932;-53
2022/06/30 03:02:56;;;;;;;;;;;;;;;27.93;47.84;98453.38;2078939;28;19929;-50
2022/06/30 03:03:56;;;;;;;;;;;;;;;27.93;47.71;98447.91;2084606;28;19924;-49
2022/06/30 03:04:58;;;;;;;;;;;;;;;27.92;47.80;98451.75;2083143;28;20048;-53
2022/06/30 03:05:58;;;;;;;;;;;;;;;27.92;47.82;98443.56;2084853;28;19932;-51
2022/06/30 03:07:00;;;;;;;;;;;;;;;27.94;47.65;98449.53;2087078;28;19928;-52
2022/06/30 03:08:01;;;;;;;;;;;;;;;27.93;47.53;98447.91;2089223;28;19976;-50
2022/06/30 03:09:03;;;;;;;;;;;;;;;27.92;47.74;98447.09;2081754;28;19932;-52
2022/06/30 03:10:06;;;;;;;;;;;;;;;27.93;47.49;98442.47;2083677;28;20927;-51
2022/06/30 03:11:07;;;;;;;;;;;;;;;27.93;47.70;98442.47;2080453;28;20524;-48
2022/06/30 03:12:08;;;;;;;;;;;;;;;27.93;47.40;98447.91;2083629;28;19952;-52
2022/06/30 03:13:10;;;;;;;;;;;;;;;27.91;47.76;98434.53;2085125;28;20444;-48
2022/06/30 03:14:11;;;;;;;;;;;;;;;27.92;47.73;98444.38;2088530;28;19928;-51
2022/06/30 03:15:12;;;;;;;;;;;;;;;27.94;47.78;98444.09;2083518;28;19982;-47
2022/06/30 03:16:13;;;;;;;;;;;;;;;27.90;47.87;98443.81;2090829;28;20047;-52
2022/06/30 03:17:15;;;;;;;;;;;;;;;27.91;47.71;98444.63;2090879;28;20042;-53
2022/06/30 03:18:15;;;;;;;;;;;;;;;27.92;47.78;98447.09;2090695;28;19924;-49
2022/06/30 03:19:17;;;;;;;;;;;;;;;27.90;47.58;98437.56;2078471;28;19928;-54
2022/06/30 03:20:17;;;;;;;;;;;;;;;27.90;47.64;98445.72;2083147;28;19929;-51
2022/06/30 03:21:20;;;;;;;;;;;;;;;27.90;47.87;98441.09;2083695;28;19971;-52
2022/06/30 03:22:20;;;;;;;;;;;;;;;27.91;47.80;98439.19;2086760;28;20510;-52
2022/06/30 03:23:22;;;;;;;;;;;;;;;27.88;47.98;98446.00;2085121;28;19921;-49
2022/06/30 03:24:22;;;;;;;;;;;;;;;27.87;47.77;98443.53;2082476;28;19939;-53
2022/06/30 03:25:25;;;;;;;;;;;;;;;27.86;48.07;98448.19;2085268;28;19975;-49
2022/06/30 03:26:26;;;;;;;;;;;;;;;27.86;47.77;98453.63;2084223;28;19928;-52
2022/06/30 03:27:27;;;;;;;;;;;;;;;27.87;47.66;98449.00;2088454;28;19971;-50
2022/06/30 03:28:28;;;;;;;;;;;;;;;27.88;47.88;98451.44;2085211;28;19931;-49
2022/06/30 03:29:29;;;;;;;;;;;;;;;27.87;47.64;98449.81;2083737;28;20473;-52
2022/06/30 03:30:30;;;;;;;;;;;;;;;27.89;47.78;98449.53;2084750;28;19935;-49
2022/06/30 03:31:32;;;;;;;;;;;;;;;27.87;47.88;98455.25;2084574;28;20577;-53
2022/06/30 03:32:32;;;;;;;;;;;;;;;27.86;47.91;98459.09;2083655;28;20019;-51
2022/06/30 03:33:34;;;;;;;;;;;;;;;27.87;47.89;98460.72;2088949;28;20427;-51
2022/06/30 03:34:35;;;;;;;;;;;;;;;27.85;47.62;98455.53;2086438;28;20385;-52
2022/06/30 03:35:37;;;;;;;;;;;;;;;27.87;47.84;98459.91;2090969;28;19956;-51
2022/06/30 03:36:38;;;;;;;;;;;;;;;27.85;47.67;98452.78;2089661;28;19963;-52
2022/06/30 03:37:40;;;;;;;;;;;;;;;27.83;47.87;98449.53;2092396;28;20398;-53
2022/06/30 03:38:40;;;;;;;;;;;;;;;27.85;47.91;98452.78;2089545;28;20015;-53
2022/06/30 03:39:42;;;;;;;;;;;;;;;27.87;47.58;98452.53;2085901;28;20570;-50
2022/06/30 03:40:44;;;;;;;;;;;;;;;27.87;47.56;98454.44;2086426;28;19933;-54
2022/06/30 03:41:46;;;;;;;;;;;;;;;27.86;47.59;98456.38;2088156;28;19990;-53
2022/06/30 03:42:46;;;;;;;;;;;;;;;27.83;47.99;98451.41;2083829;28;19932;-54
2022/06/30 03:43:48;;;;;;;;;;;;;;;27.83;47.83;98454.16;2088368;28;20039;-52
2022/06/30 03:44:49;;;;;;;;;;;;;;;27.82;48.02;98453.34;2087645;28;19935;-50
2022/06/30 03:45:50;;;;;;;;;;;;;;;27.82;47.73;98457.97;2089627;28;20433;-54
2022/06/30 03:46:51;;;;;;;;;;;;;;;27.82;47.85;98456.06;2090780;28;19936;-49
2022/06/30 03:47:52;;;;;;;;;;;;;;;27.82;47.69;98458.78;2089030;28;19935;-50
2022/06/30 03:48:53;;;;;;;;;;;;;;;27.81;48.09;98461.78;2090672;28;20600;-52
2022/06/30 03:49:54;;;;;;;;;;;;;;;27.82;47.86;98455.25;2090506;28;19935;-52
2022/06/30 03:50:55;;;;;;;;;;;;;;;27.83;47.86;98452.28;2091054;28;19935;-52
2022/06/30 03:51:57;;;;;;;;;;;;;;;27.81;47.85;98450.91;2089763;28;20471;-49
2022/06/30 03:52:57;;;;;;;;;;;;;;;27.80;48.03;98443.78;2088766;28;20390;-51
2022/06/30 03:53:59;;;;;;;;;;;;;;;27.80;47.61;98449.25;2088264;28;19929;-52
2022/06/30 03:55:00;;;;;;;;;;;;;;;27.80;47.89;98450.09;2087835;28;19932;-52
2022/06/30 03:56:03;;;;;;;;;;;;;;;27.79;47.68;98450.31;2081995;28;20090;-53
2022/06/30 03:57:03;;;;;;;;;;;;;;;27.79;47.74;98445.69;2084897;28;21014;-54
2022/06/30 03:58:05;;;;;;;;;;;;;;;27.80;47.63;98455.53;2086407;28;19933;-51
2022/06/30 03:59:05;;;;;;;;;;;;;;;27.82;47.87;98452.53;2084731;28;20966;-49
2022/06/30 04:00:08;;;;;;;;;;;;;;;27.81;47.83;98445.44;2078912;28;19932;-53
2022/06/30 04:01:08;;;;;;;;;;;;;;;27.82;47.85;98442.44;2079630;28;20666;-47
2022/06/30 04:02:10;;;;;;;;;;;;;;;27.81;47.94;98450.91;2085932;28;20014;-53
2022/06/30 04:03:10;;;;;;;;;;;;;;;27.81;47.91;98451.72;2083862;28;20010;-53
2022/06/30 04:04:12;;;;;;;;;;;;;;;27.80;47.88;98450.09;2083534;28;20033;-52
2022/06/30 04:05:13;;;;;;;;;;;;;;;27.79;48.10;98448.41;2085041;28;19974;-52
2022/06/30 04:06:14;;;;;;;;;;;;;;;27.78;48.04;98444.03;2089106;28;20594;-51
2022/06/30 04:07:15;;;;;;;;;;;;;;;27.80;47.92;98443.78;2090217;28;19936;-49
2022/06/30 04:08:16;;;;;;;;;;;;;;;27.78;47.95;98452.22;2091030;28;20941;-51
2022/06/30 04:09:17;;;;;;;;;;;;;;;27.77;47.81;98445.09;2087420;28;19928;-49
2022/06/30 04:10:18;;;;;;;;;;;;;;;27.77;47.66;98445.09;2087513;28;20011;-52
2022/06/30 04:11:20;;;;;;;;;;;;;;;27.80;47.64;98449.25;2081835;28;19940;-52
2022/06/30 04:12:22;;;;;;;;;;;;;;;27.79;48.02;98440.25;2090344;28;19988;-50
2022/06/30 04:13:22;;;;;;;;;;;;;;;27.79;47.67;98442.97;2087861;28;19936;-50
2022/06/30 04:14:24;;;;;;;;;;;;;;;27.78;47.88;98441.31;2084511;28;19958;-48
2022/06/30 04:15:25;;;;;;;;;;;;;;;27.78;47.90;98441.31;2083562;28;19925;-51
2022/06/30 04:16:26;;;;;;;;;;;;;;;27.78;48.04;98435.06;2086540;28;20019;-48
2022/06/30 04:17:27;;;;;;;;;;;;;;;27.78;48.04;98440.50;2082155;28;19936;-48
2022/06/30 04:18:29;;;;;;;;;;;;;;;27.78;47.66;98437.78;2076171;28;19971;-50
2022/06/30 04:19:30;;;;;;;;;;;;;;;27.76;47.59;98446.22;2078599;28;19928;-53
2022/06/30 04:20:32;;;;;;;;;;;;;;;27.77;47.85;98445.09;2080902;28;19987;-53
2022/06/30 04:21:32;;;;;;;;;;;;;;;27.77;47.58;98444.28;2084083;28;19928;-55
2022/06/30 04:22:34;;;;;;;;;;;;;;;27.77;47.70;98442.38;2082882;28;19943;-50
2022/06/30 04:23:34;;;;;;;;;;;;;;;27.76;47.97;98437.22;2086071;28;19929;-52
2022/06/30 04:24:36;;;;;;;;;;;;;;;27.78;47.75;98441.31;2080301;28;19941;-49
2022/06/30 04:25:38;;;;;;;;;;;;;;;27.75;47.93;98441.84;2088359;28;19974;-52
2022/06/30 04:26:41;;;;;;;;;;;;;;;27.74;47.79;98445.66;2081728;28;19975;-52
2022/06/30 04:27:42;;;;;;;;;;;;;;;27.75;47.76;98446.47;2083586;28;19929;-53
2022/06/30 04:28:44;;;;;;;;;;;;;;;27.75;47.62;98452.75;2082876;28;20393;-52
2022/06/30 04:29:44;;;;;;;;;;;;;;;27.76;47.55;98454.38;2085084;28;19935;-49
2022/06/30 04:33:25;;;;;;;;;;;;;;;27.75;47.72;98455.47;2083420;28;19936;-53
2022/06/30 04:34:25;;;;;;;;;;;;;;;27.73;47.77;98454.91;2087857;28;19935;-53
2022/06/30 04:35:27;;;;;;;;;;;;;;;27.73;47.88;98454.09;2085267;28;19924;-49
2022/06/30 04:36:27;;;;;;;;;;;;;;;27.74;48.12;98455.72;2087692;28;19932;-51
2022/06/30 04:37:29;;;;;;;;;;;;;;;27.74;48.01;98451.09;2084577;28;19928;-50
2022/06/30 04:38:30;;;;;;;;;;;;;;;27.74;47.69;98455.72;2084976;28;19935;-51
2022/06/30 04:39:31;;;;;;;;;;;;;;;27.73;48.00;98452.19;2080245;28;20282;-54
2022/06/30 04:41:53;;;;;;;;;;;;;;;27.71;47.84;98446.19;2084932;28;20418;-49
2022/06/30 04:42:54;;;;;;;;;;;;;;;27.72;48.00;98447.84;2083242;28;19944;-53
2022/06/30 04:43:56;;;;;;;;;;;;;;;27.70;47.78;98444.56;2086088;28;20023;-52
2022/06/30 04:44:57;;;;;;;;;;;;;;;27.70;47.75;98450.00;2089981;28;19928;-50
2022/06/30 04:45:58;;;;;;;;;;;;;;;27.70;47.79;98444.56;2087593;28;20301;-49
2022/06/30 04:46:59;;;;;;;;;;;;;;;27.70;47.93;98444.56;2083517;28;19929;-50
2022/06/30 04:48:00;;;;;;;;;;;;;;;27.73;47.61;98438.56;2087218;28;20020;-50
2022/06/30 04:49:02;;;;;;;;;;;;;;;27.71;48.00;98437.19;2086066;28;19936;-48
2022/06/30 04:50:03;;;;;;;;;;;;;;;27.71;47.73;98440.75;2083840;28;19956;-49
2022/06/30 04:51:05;;;;;;;;;;;;;;;27.71;47.82;98437.19;2084739;28;24707;-48
2022/06/30 04:52:05;;;;;;;;;;;;;;;27.73;48.10;98444.03;2083976;28;19947;-49
2022/06/30 04:53:07;;;;;;;;;;;;;;;27.70;47.66;98439.13;2085652;28;19933;-46
2022/06/30 04:54:08;;;;;;;;;;;;;;;27.69;47.80;98440.19;2087790;28;19929;-50
2022/06/30 04:55:09;;;;;;;;;;;;;;;27.68;48.16;98441.28;2084864;28;20011;-51
2022/06/30 04:56:10;;;;;;;;;;;;;;;27.69;47.86;98432.00;2086820;28;22284;-52
2022/06/30 04:57:13;;;;;;;;;;;;;;;27.70;48.21;98432.84;2085986;28;19934;-52
2022/06/30 04:58:13;;;;;;;;;;;;;;;27.68;47.72;98435.00;2083629;28;19928;-51
2022/06/30 04:59:16;;;;;;;;;;;;;;;27.69;48.08;98436.63;2086167;28;19928;-51
2022/06/30 05:00:17;;;;;;;;;;;;;;;27.68;47.95;98433.09;2084822;28;20504;-50
2022/06/30 05:01:18;;;;;;;;;;;;;;;27.70;47.85;98441.03;2082841;28;19929;-49
2022/06/30 05:02:19;;;;;;;;;;;;;;;27.66;48.10;98438.00;2084661;28;19936;-52
2022/06/30 05:03:20;;;;;;;;;;;;;;;27.66;48.03;98437.19;2085847;28;19928;-49
2022/06/30 05:04:21;;;;;;;;;;;;;;;27.67;47.82;98436.13;2089594;28;19935;-51
2022/06/30 05:05:22;;;;;;;;;;;;;;;27.66;48.00;98437.19;2085337;28;19929;-49
2022/06/30 05:06:23;;;;;;;;;;;;;;;27.67;47.99;98439.66;2085784;28;19928;-51
2022/06/30 05:07:24;;;;;;;;;;;;;;;27.66;48.22;98443.44;2085553;28;19968;-53
2022/06/30 05:08:26;;;;;;;;;;;;;;;27.66;47.92;98443.44;2087276;28;19924;-53
2022/06/30 05:09:26;;;;;;;;;;;;;;;27.65;48.07;98447.25;2087563;28;19989;-53
2022/06/30 05:10:28;;;;;;;;;;;;;;;27.68;47.69;98449.44;2086182;28;20013;-48
2022/06/30 05:11:30;;;;;;;;;;;;;;;27.68;48.09;98454.91;2086519;28;19939;-53
2022/06/30 05:12:32;;;;;;;;;;;;;;;27.66;47.90;98451.63;2083491;28;19928;-49
2022/06/30 05:13:34;;;;;;;;;;;;;;;27.67;47.73;98456.00;2083051;28;19932;-50
2022/06/30 05:14:34;;;;;;;;;;;;;;;27.66;48.16;98459.78;2085769;28;19990;-48
2022/06/30 05:15:36;;;;;;;;;;;;;;;27.65;48.08;98449.19;2077944;28;20634;-50
2022/06/30 05:16:36;;;;;;;;;;;;;;;27.66;47.88;98454.34;2078919;28;20520;-53
2022/06/30 05:17:38;;;;;;;;;;;;;;;27.68;47.97;98457.63;2087029;28;19931;-50
2022/06/30 05:18:38;;;;;;;;;;;;;;;27.67;48.21;98458.72;2083675;28;20255;-49
2022/06/30 05:19:40;;;;;;;;;;;;;;;27.66;47.84;98454.34;2082500;28;19935;-48
2022/06/30 05:20:41;;;;;;;;;;;;;;;27.63;48.20;98452.16;2084249;28;20998;-51
2022/06/30 05:21:43;;;;;;;;;;;;;;;27.65;48.19;98462.81;2082125;28;19944;-49
2022/06/30 05:22:43;;;;;;;;;;;;;;;27.65;48.15;98460.06;2074967;28;19933;-48
2022/06/30 05:26:28;;;;;;;;;;;;;;;27.63;48.14;98460.31;2077791;28;21208;-51
2022/06/30 05:26:31;;;;;;;;;;;;;;;27.63;47.74;98457.59;2079876;28;20019;-48
2022/06/30 05:27:34;;;;;;;;;;;;;;;27.63;47.94;98460.31;2080386;28;20716;-47
2022/06/30 05:28:35;;;;;;;;;;;;;;;27.63;48.12;98460.31;2083666;28;19932;-48
2022/06/30 05:29:37;;;;;;;;;;;;;;;27.62;48.24;98454.06;2083188;28;19944;-52
2022/06/30 05:30:37;;;;;;;;;;;;;;;27.64;48.00;98467.44;2080968;28;20275;-49